Flight Track Log - Related Links

Times and Time Zones

All times are in EDT time to prevent confusion due to time zone crossing. See the SRY659 flight status page for this flight to view local times or setup timezone preferences in your user account.

Time Position Orientation Groundspeed Altitude Reporting Facility
EDT Latitude Longitude Course Direction KTS MPH feet Rate Location/Type
Fri 05:57:35 PM 40.7167 -73.4000 217° Southwest 158 182 1,000  Level New York TRACON
Fri 05:58:35 PM 40.6833 -73.4333 217° Southwest 175 201 2,000 1,250 Climbing New York TRACON
Fri 05:59:35 PM 40.6833 -73.5000 270° West 162 186 3,500 1,381 Climbing New York TRACON
Fri 06:00:41 PM 40.6833 -73.5667 270° West 172 198 4,900 1,381 Climbing New York TRACON
Fri 06:01:41 PM 40.6667 -73.6167 246° West 172 198 6,400 1,100 Climbing New York TRACON
Fri 06:02:41 PM 40.6667 -73.7000 270° West 197 227 7,100 350 Climbing New York TRACON
Fri 06:03:41 PM 40.6500 -73.7667 252° West 207 238 7,100  Level New York TRACON
Fri 06:04:35 PM 40.5833 -73.8000 201° Southwest 229 264 7,100  Level New York TRACON
Fri 06:05:41 PM 40.5167 -73.8500 210° Southwest 249 287 7,100  Level New York TRACON
Fri 06:06:41 PM 40.4500 -73.9000 210° Southwest 252 290 7,100  Level New York TRACON
Fri 06:07:41 PM 40.4000 -73.9500 217° Southwest 254 292 7,100 -149 Level New York TRACON
Fri 06:09:00 PM 40.3277 -74.0002 208° Southwest  Level FlightAware Approximate
Fri 06:16:00 PM 39.9188 -74.1572 182° South  Level FlightAware Approximate
Fri 06:17:00 PM 39.8567 -74.1599 182° South  Level FlightAware Approximate
Fri 06:18:00 PM 39.7946 -74.1626 182° South  Level FlightAware Approximate
Fri 06:19:00 PM 39.7325 -74.1653 182° South  Level FlightAware Approximate
Fri 06:20:00 PM 39.6705 -74.1667 180° South  Level FlightAware Approximate
Fri 06:20:08 PM 39.6186 -74.2689 232° Southwest 199 229 5,100  Level Washington Center
Fri 06:21:00 PM 39.6308 -74.2264 232° Southwest  Level FlightAware Approximate
Fri 06:22:00 PM 39.5650 -74.3701 237° Southwest  Level FlightAware Approximate
Fri 06:22:00 PM 39.5930 -74.2854 229° Southwest  Level FlightAware Approximate
Fri 06:23:00 PM 39.5732 -74.3536 237° Southwest  Level FlightAware Approximate
Fri 06:23:22 PM 39.5183 -74.4428 237° Southwest 185 213 2,300  Level Washington Center
Fri 06:24:00 PM 39.5399 -74.4169 232° Southwest  Level FlightAware Approximate
Fri 06:25:00 PM 39.5036 -74.4774 232° Southwest  Level FlightAware Approximate

Login

Don't have an account? Register now (free) for customized features, flight alerts, and more!